Aviation Digital Data Service (ADDS)

Output produced by METARs form (1835 UTC 19 April 2019)
found at http://www.aviationweather.gov/metar/data/
 
METAR text: VTPH 191100Z 16011KT 140V210 9999 FEW030 32/27 Q1004 NOSIG
Conditions at: VTPH (HUA HIN , TH) observed 1100 UTC 19 April 2019
Temperature: 32.0°C (90°F)
Dewpoint: 27.0°C (81°F) [RH = 75%]
Pressure (altimeter): 29.65 inches Hg (1004.0 mb)
Winds: from the SSE (160 degrees) at 13 MPH (11 knots; 5.7 m/s)
Visibility: 6 or more miles (10+ km)
Ceiling: at least 12,000 feet AGL
Clouds: few clouds at 3000 feet AGL
Weather: no significant weather observed at this time

METAR text: VTPH 191000Z 15012KT 9999 FEW030 33/27 Q1003 NOSIG
Conditions at: VTPH (HUA HIN , TH) observed 1000 UTC 19 April 2019
Temperature: 33.0°C (91°F)
Dewpoint: 27.0°C (81°F) [RH = 71%]
Pressure (altimeter): 29.62 inches Hg (1003.0 mb)
Winds: from the SSE (150 degrees) at 14 MPH (12 knots; 6.2 m/s)
Visibility: 6 or more miles (10+ km)
Ceiling: at least 12,000 feet AGL
Clouds: few clouds at 3000 feet AGL
Weather: no significant weather observed at this time

METAR text: VTPH 190900Z 15013KT 9999 FEW030 33/27 Q1004 NOSIG
Conditions at: VTPH (HUA HIN , TH) observed 0900 UTC 19 April 2019
Temperature: 33.0°C (91°F)
Dewpoint: 27.0°C (81°F) [RH = 71%]
Pressure (altimeter): 29.65 inches Hg (1004.0 mb)
Winds: from the SSE (150 degrees) at 15 MPH (13 knots; 6.7 m/s)
Visibility: 6 or more miles (10+ km)
Ceiling: at least 12,000 feet AGL
Clouds: few clouds at 3000 feet AGL
Weather: no significant weather observed at this time

METAR text: VTPH 190800Z 14013KT 9999 FEW030 34/27 Q1005 NOSIG
Conditions at: VTPH (HUA HIN , TH) observed 0800 UTC 19 April 2019
Temperature: 34.0°C (93°F)
Dewpoint: 27.0°C (81°F) [RH = 67%]
Pressure (altimeter): 29.68 inches Hg (1005.0 mb)
Winds: from the SE (140 degrees) at 15 MPH (13 knots; 6.7 m/s)
Visibility: 6 or more miles (10+ km)
Ceiling: at least 12,000 feet AGL
Clouds: few clouds at 3000 feet AGL
Weather: no significant weather observed at this time

METAR text: VTPH 190700Z 15013KT 9999 FEW030 34/26 Q1005 NOSIG
Conditions at: VTPH (HUA HIN , TH) observed 0700 UTC 19 April 2019
Temperature: 34.0°C (93°F)
Dewpoint: 26.0°C (79°F) [RH = 63%]
Pressure (altimeter): 29.68 inches Hg (1005.0 mb)
Winds: from the SSE (150 degrees) at 15 MPH (13 knots; 6.7 m/s)
Visibility: 6 or more miles (10+ km)
Ceiling: at least 12,000 feet AGL
Clouds: few clouds at 3000 feet AGL
Weather: no significant weather observed at this time

METAR text: VTPH 190600Z 15013KT 9999 FEW030 34/26 Q1007 NOSIG
Conditions at: VTPH (HUA HIN , TH) observed 0600 UTC 19 April 2019
Temperature: 34.0°C (93°F)
Dewpoint: 26.0°C (79°F) [RH = 63%]
Pressure (altimeter): 29.73 inches Hg (1007.0 mb)
Winds: from the SSE (150 degrees) at 15 MPH (13 knots; 6.7 m/s)
Visibility: 6 or more miles (10+ km)
Ceiling: at least 12,000 feet AGL
Clouds: few clouds at 3000 feet AGL
Weather: no significant weather observed at this time

METAR text: VTPH 190500Z 13010KT 9000 FEW030 34/26 Q1008 NOSIG
Conditions at: VTPH (HUA HIN , TH) observed 0500 UTC 19 April 2019
Temperature: 34.0°C (93°F)
Dewpoint: 26.0°C (79°F) [RH = 63%]
Pressure (altimeter): 29.76 inches Hg (1008.0 mb)
Winds: from the SE (130 degrees) at 12 MPH (10 knots; 5.1 m/s)
Visibility: 6 miles ( 9 km)
Ceiling: at least 12,000 feet AGL
Clouds: few clouds at 3000 feet AGL
Weather: no significant weather observed at this time

METAR text: VTPH 190400Z 13009KT 9000 FEW030 34/25 Q1009 NOSIG
Conditions at: VTPH (HUA HIN , TH) observed 0400 UTC 19 April 2019
Temperature: 34.0°C (93°F)
Dewpoint: 25.0°C (77°F) [RH = 60%]
Pressure (altimeter): 29.79 inches Hg (1009.0 mb)
Winds: from the SE (130 degrees) at 10 MPH (9 knots; 4.6 m/s)
Visibility: 6 miles ( 9 km)
Ceiling: at least 12,000 feet AGL
Clouds: few clouds at 3000 feet AGL
Weather: no significant weather observed at this time

METAR text: VTPH 190300Z 13008KT 9000 NSC 34/25 Q1009 NOSIG
Conditions at: VTPH (HUA HIN , TH) observed 0300 UTC 19 April 2019
Temperature: 34.0°C (93°F)
Dewpoint: 25.0°C (77°F) [RH = 60%]
Pressure (altimeter): 29.79 inches Hg (1009.0 mb)
Winds: from the SE (130 degrees) at 9 MPH (8 knots; 4.1 m/s)
Visibility: 6 miles ( 9 km)
Ceiling: at least 12,000 feet AGL
Clouds: sky clear below 12,000 feet AGL
Weather: no significant weather observed at this time

METAR text: VTPH 190200Z VRB03KT CAVOK 34/23 Q1009 NOSIG
Conditions at: VTPH (HUA HIN , TH) observed 0200 UTC 19 April 2019
Temperature: 34.0°C (93°F)
Dewpoint: 23.0°C (73°F) [RH = 53%]
Pressure (altimeter): 29.79 inches Hg (1009.0 mb)
Winds: variable direction winds at 3 MPH (3 knots; 1.5 m/s)
Visibility: 6 or more miles (10+ km)
Ceiling: ceiling and visibility are OK
Clouds: unknown
Weather: no significant weather observed at this time

METAR text: VTPH 190100Z VRB03KT 9000 NSC 31/24 Q1008 NOSIG
Conditions at: VTPH (HUA HIN , TH) observed 0100 UTC 19 April 2019
Temperature: 31.0°C (88°F)
Dewpoint: 24.0°C (75°F) [RH = 66%]
Pressure (altimeter): 29.76 inches Hg (1008.0 mb)
Winds: variable direction winds at 3 MPH (3 knots; 1.5 m/s)
Visibility: 6 miles ( 9 km)
Ceiling: at least 12,000 feet AGL
Clouds: sky clear below 12,000 feet AGL
Weather: no significant weather observed at this time

METAR text: VTPH 190000Z VRB01KT 9000 NSC 28/23 Q1007 NOSIG
Conditions at: VTPH (HUA HIN , TH) observed 0000 UTC 19 April 2019
Temperature: 28.0°C (82°F)
Dewpoint: 23.0°C (73°F) [RH = 74%]
Pressure (altimeter): 29.73 inches Hg (1007.0 mb)
Winds: variable direction winds at 1 MPH (1 knots; 0.5 m/s)
Visibility: 6 miles ( 9 km)
Ceiling: at least 12,000 feet AGL
Clouds: sky clear below 12,000 feet AGL
Weather: no significant weather observed at this time

METAR text: VTPH 182300Z VRB02KT 9000 NSC 27/23 Q1006 NOSIG
Conditions at: VTPH (HUA HIN , TH) observed 2300 UTC 18 April 2019
Temperature: 27.0°C (81°F)
Dewpoint: 23.0°C (73°F) [RH = 79%]
Pressure (altimeter): 29.70 inches Hg (1006.0 mb)
Winds: variable direction winds at 2 MPH (2 knots; 1.0 m/s)
Visibility: 6 miles ( 9 km)
Ceiling: at least 12,000 feet AGL
Clouds: sky clear below 12,000 feet AGL
Weather: no significant weather observed at this time

METAR text: VTPH 181100Z 16010KT 130V190 9999 FEW028 31/28 Q1006 NOSIG
Conditions at: VTPH (HUA HIN , TH) observed 1100 UTC 18 April 2019
Temperature: 31.0°C (88°F)
Dewpoint: 28.0°C (82°F) [RH = 84%]
Pressure (altimeter): 29.70 inches Hg (1006.0 mb)
Winds: from the SSE (160 degrees) at 12 MPH (10 knots; 5.1 m/s)
Visibility: 6 or more miles (10+ km)
Ceiling: at least 12,000 feet AGL
Clouds: few clouds at 2800 feet AGL
Weather: no significant weather observed at this time

METAR text: VTPH 181000Z 16011KT 9999 FEW028 32/28 Q1005 NOSIG
Conditions at: VTPH (HUA HIN , TH) observed 1000 UTC 18 April 2019
Temperature: 32.0°C (90°F)
Dewpoint: 28.0°C (82°F) [RH = 80%]
Pressure (altimeter): 29.68 inches Hg (1005.0 mb)
Winds: from the SSE (160 degrees) at 13 MPH (11 knots; 5.7 m/s)
Visibility: 6 or more miles (10+ km)
Ceiling: at least 12,000 feet AGL
Clouds: few clouds at 2800 feet AGL
Weather: no significant weather observed at this time

METAR text: VTPH 180900Z 16014KT 9999 FEW028 32/28 Q1005 NOSIG
Conditions at: VTPH (HUA HIN , TH) observed 0900 UTC 18 April 2019
Temperature: 32.0°C (90°F)
Dewpoint: 28.0°C (82°F) [RH = 80%]
Pressure (altimeter): 29.68 inches Hg (1005.0 mb)
Winds: from the SSE (160 degrees) at 16 MPH (14 knots; 7.2 m/s)
Visibility: 6 or more miles (10+ km)
Ceiling: at least 12,000 feet AGL
Clouds: few clouds at 2800 feet AGL
Weather: no significant weather observed at this time

METAR text: VTPH 180800Z 15015KT 9999 FEW028 33/28 Q1006 NOSIG
Conditions at: VTPH (HUA HIN , TH) observed 0800 UTC 18 April 2019
Temperature: 33.0°C (91°F)
Dewpoint: 28.0°C (82°F) [RH = 75%]
Pressure (altimeter): 29.70 inches Hg (1006.0 mb)
Winds: from the SSE (150 degrees) at 17 MPH (15 knots; 7.7 m/s)
Visibility: 6 or more miles (10+ km)
Ceiling: at least 12,000 feet AGL
Clouds: few clouds at 2800 feet AGL
Weather: no significant weather observed at this time

METAR text: VTPH 180700Z 15014KT 9999 FEW028 34/28 Q1007 NOSIG
Conditions at: VTPH (HUA HIN , TH) observed 0700 UTC 18 April 2019
Temperature: 34.0°C (93°F)
Dewpoint: 28.0°C (82°F) [RH = 71%]
Pressure (altimeter): 29.73 inches Hg (1007.0 mb)
Winds: from the SSE (150 degrees) at 16 MPH (14 knots; 7.2 m/s)
Visibility: 6 or more miles (10+ km)
Ceiling: at least 12,000 feet AGL
Clouds: few clouds at 2800 feet AGL
Weather: no significant weather observed at this time

Forecast for: VTPH (HUA HIN , TH)
Text: TAF VTPH 191700Z 1918/2018 VRB02KT 9999 FEW030
Forecast period: 1800 UTC 19 April 2019 to 0100 UTC 20 April 2019
Forecast type: FROM: standard forecast or significant change
Winds: variable direction winds at 2 MPH (2 knots; 1.0 m/s)
Visibility: 6 or more miles 10+ km)
Ceiling: at least 12,000 feet AGL
Clouds: few clouds at 3000 feet AGL
Weather: no significant weather forecast for this period
Text: BECMG 2001/2003 15010KT
Forecast period: 0100 to 1400 UTC 20 April 2019
Forecast type: BECOMING: Conditions expected to become as follows by 0300 UTC 20 April 2019
Winds: from the SSE (150 degrees) at 12 MPH (10 knots; 5.1 m/s)
Visibility: 6 or more miles 10+ km)
Ceiling: at least 12,000 feet AGL
Clouds: few clouds at 3000 feet AGL
Weather: no significant weather forecast for this period
Text: BECMG 2014/2016 23005KT
Forecast period: 1400 to 1800 UTC 20 April 2019
Forecast type: BECOMING: Conditions expected to become as follows by 1600 UTC 20 April 2019
Winds: from the SW (230 degrees) at 6 MPH (5 knots; 2.6 m/s)
Visibility: 6 or more miles 10+ km)
Ceiling: at least 12,000 feet AGL
Clouds: few clouds at 3000 feet AGL
Weather: no significant weather forecast for this period